Mercedita, PR

4:05 PM AST on September 03, 2015 (GMT -0400)
City | | Change Station
CLOSE
Current Station
Personal Weather Station
Location: Ponce, PR
Elevation: 36 ft
Nearby Weather Stations

Elev 36 ft 18.00 °N, 66.64 °W | Updated 0 second ago

Scattered Clouds
Scattered Clouds
86.9 °F
Feels Like 98 °F
N
0.7
Wind Variable Wind from South
Gusts 7.6 mph

Today
High -- | Low -- °F
--% Chance of Precip.
Yesterday
High -- | Low -- °F
Precip. -- in
6:12 AM 6:38 PM
Waning Gibbous, 67% visible
Pressure 29.96 in
Visibility 10.0 miles
Clouds Scattered Clouds 3000 ft
Heat Index 98 °F
Dew Point 76 °F
Humidity 71%
Rainfall 0.00 in
Snow Depth Not available.
UV 4 out of 12
Pollen Not available.
Air Quality Not available.
Flu Activity Not available.
METAR TJBQ 031950Z 06007KT 10SM VCTS SCT030 30/24 A2996 RMK LTG DSNT SE RWY 8 ATIS G
Pressure 29.96 in
Visibility 10.0 miles
Clouds Scattered Clouds 3000 ft
Heat Index 98 °F
Dew Point 76 °F
Humidity 71%
Rainfall 0.00 in
Snow Depth Not available.
UV 4 out of 12
Pollen Not available.
Air Quality Not available.
Flu Activity Not available.
METAR TJBQ 031950Z 06007KT 10SM VCTS SCT030 30/24 A2996 RMK LTG DSNT SE RWY 8 ATIS G

10-Day Weather Forecast

×

Almanac

Astronomy

Sep. 03, 2015 Rise Set
Actual Time
Civil Twilight
Nautical Twilight
Astronomical Twilight
Moon
Length of Visible Light
Length of Day
Tomorrow will be .
, % of the Moon is Illuminated

Today's Extremes

State Highs State Lows

Community

WunderPhotos

Upload Photos

1,852,019 photos uploaded!

WunderBlogs® & News

Nearby

Air Quality

  Air Quality AQ Index Pollutant
Not available.

Snow Depth

Station Depth Elevation

Earthquake Activity

City Distance Mag. Time & Date
Minimum magnitude displayed is 2.5.

Coastal Water Temperatures

Place Temperature

Stations

Nearby Weather Stations

Station Location Temp. Windchill Dew Point Humidity Wind Precip. Elev Updated Type